createdAt,value
2019-01-05T00:02:35.156Z,13
2019-01-05T00:12:34.362Z,13.2
2019-01-05T00:22:33.560Z,13
2019-01-05T00:32:32.769Z,13.2
2019-01-05T00:42:31.973Z,12.5
2019-01-05T00:52:31.167Z,12.5
2019-01-05T01:02:30.370Z,12.8
2019-01-05T01:12:29.579Z,13.2
2019-01-05T01:22:28.774Z,13.2
2019-01-05T01:32:27.974Z,13.2
2019-01-05T01:42:27.176Z,12.6
2019-01-05T01:52:26.383Z,12.7
2019-01-05T02:02:26.785Z,13.1
2019-01-05T02:12:24.783Z,13.1
2019-01-05T02:22:23.983Z,13
2019-01-05T02:32:23.189Z,13.1
2019-01-05T02:42:22.391Z,13
2019-01-05T02:52:21.587Z,12.4
2019-01-05T03:02:20.793Z,13.2
2019-01-05T03:12:19.990Z,13.1
2019-01-05T03:22:19.188Z,13
2019-01-05T03:32:18.392Z,13.2
2019-01-05T03:42:17.595Z,12.8
2019-01-05T03:52:16.802Z,12.3
2019-01-05T04:02:15.989Z,13.2
2019-01-05T04:12:15.198Z,12.8
2019-01-05T04:22:14.396Z,12.5
2019-01-05T04:32:13.590Z,13.1
2019-01-05T04:42:12.802Z,12.5
2019-01-05T04:52:11.988Z,12.7
2019-01-05T05:02:11.193Z,13
2019-01-05T05:12:10.389Z,12.6
2019-01-05T05:22:09.589Z,13.1
2019-01-05T05:32:08.787Z,12.3
2019-01-05T05:42:07.989Z,12.5
2019-01-05T05:52:07.194Z,12.5
2019-01-05T06:02:06.387Z,12.9
2019-01-05T06:12:05.589Z,12.6
2019-01-05T06:22:04.794Z,12.5
2019-01-05T06:32:03.984Z,13.1
2019-01-05T06:42:03.185Z,12.6
2019-01-05T06:52:02.396Z,13.2
2019-01-05T07:02:01.580Z,13.8
2019-01-05T07:12:00.800Z,14.1
2019-01-05T07:21:59.978Z,14.4
2019-01-05T07:31:59.189Z,14
2019-01-05T07:41:58.384Z,14.3
2019-01-05T07:51:57.587Z,14.3
2019-01-05T08:01:56.793Z,13.8
2019-01-05T08:11:55.998Z,14.4
2019-01-05T08:21:55.200Z,14.4
2019-01-05T08:31:54.398Z,14.6
2019-01-05T08:41:53.601Z,14.7
2019-01-05T08:51:52.818Z,14.1
2019-01-05T09:01:52.072Z,14.4
2019-01-05T09:11:51.217Z,14.7
2019-01-05T09:21:50.414Z,14
2019-01-05T09:31:49.624Z,14.7
2019-01-05T09:41:48.817Z,14.5
2019-01-05T09:51:48.020Z,14.4
2019-01-05T10:01:47.232Z,14
2019-01-05T10:11:46.435Z,14.1
2019-01-05T10:21:45.639Z,14.2
2019-01-05T10:31:44.838Z,14.4
2019-01-05T10:41:44.039Z,14.1
2019-01-05T10:51:43.249Z,14.7
2019-01-05T11:01:42.443Z,14.4
2019-01-05T11:11:41.651Z,14.2
2019-01-05T11:21:40.851Z,14.7
2019-01-05T11:31:40.038Z,14.1
2019-01-05T11:41:39.249Z,14.7
2019-01-05T11:51:38.435Z,14.7
2019-01-05T12:01:37.642Z,14.4
2019-01-05T12:11:36.849Z,14.7
2019-01-05T12:21:36.045Z,14.7
2019-01-05T12:31:35.244Z,14.3
2019-01-05T12:43:48.002Z,13.5
2019-01-05T12:53:47.206Z,13
2019-01-05T13:03:46.409Z,13.4
2019-01-05T13:13:45.606Z,12.8
2019-01-05T13:23:44.813Z,13.5
2019-01-05T13:33:44.021Z,13.2
2019-01-05T13:43:43.238Z,13.3
2019-01-05T13:53:42.518Z,12.7
2019-01-05T14:03:41.810Z,12.9
2019-01-05T14:13:41.106Z,13
2019-01-05T14:23:40.398Z,12.9
2019-01-05T14:33:39.684Z,12.8
2019-01-05T14:43:38.942Z,12.7
2019-01-05T14:53:38.149Z,12.8
2019-01-05T15:03:37.364Z,13.1
2019-01-05T15:13:36.572Z,12.6
2019-01-05T15:23:35.795Z,13.2
2019-01-05T15:33:34.990Z,13
2019-01-05T15:43:34.205Z,13.2
2019-01-05T15:53:33.411Z,13
2019-01-05T16:03:32.621Z,13
2019-01-05T16:13:31.836Z,13.2
2019-01-05T16:23:31.032Z,13.1
2019-01-05T16:33:30.247Z,12.6
2019-01-05T16:43:29.455Z,12.9
2019-01-05T16:53:28.753Z,12.5
2019-01-05T17:03:27.872Z,13.2
2019-01-05T17:13:27.080Z,13.1
2019-01-05T17:23:26.284Z,13.1
2019-01-05T17:33:25.494Z,13.2
2019-01-05T17:43:24.732Z,12.4
2019-01-05T17:53:23.927Z,13.1
2019-01-05T18:03:23.126Z,12.4
2019-01-05T18:13:22.340Z,12.7
2019-01-05T18:23:21.532Z,13.3
2019-01-05T18:33:20.742Z,12.7
2019-01-05T18:43:19.929Z,13.1
2019-01-05T18:53:19.153Z,12.9
2019-01-05T19:03:18.357Z,13.2
2019-01-05T19:13:17.566Z,13.2
2019-01-05T19:23:16.780Z,12.7
2019-01-05T19:33:15.970Z,13.1
2019-01-05T19:43:15.189Z,13
2019-01-05T19:53:14.383Z,12.7
2019-01-05T20:03:13.600Z,13.2
2019-01-05T20:13:12.809Z,13.2
2019-01-05T20:23:12.022Z,12.7
2019-01-05T20:33:11.234Z,13.1
2019-01-05T20:43:10.446Z,12.6
2019-01-05T20:53:09.658Z,12.7
2019-01-05T21:03:08.880Z,13
2019-01-05T21:13:08.082Z,13.2
2019-01-05T21:23:07.291Z,12.5
2019-01-05T21:33:06.491Z,12.6
2019-01-05T21:43:05.698Z,12.4
2019-01-05T21:53:04.906Z,13.1
2019-01-05T22:03:04.121Z,12.6
2019-01-05T22:13:03.323Z,13
2019-01-05T22:23:02.529Z,12.5
2019-01-05T22:33:02.627Z,13.1
2019-01-05T22:43:01.842Z,13.2
2019-01-05T22:53:01.052Z,12.9
2019-01-05T23:03:00.261Z,13
2019-01-05T23:12:59.476Z,13.2
2019-01-05T23:22:58.674Z,12.8
2019-01-05T23:32:57.877Z,13.1
2019-01-05T23:42:57.079Z,13.2
2019-01-05T23:52:56.287Z,12.4
